sensor_id;sensor_type;location;lat;lon;timestamp;P1;durP1;ratioP1;P2;durP2;ratioP2
32491;SDS011;20605;49.742;18.802;2022-12-29T00:01:40;7.22;;;5.33;;
32491;SDS011;20605;49.742;18.802;2022-12-29T00:04:07;6.58;;;4.95;;
32491;SDS011;20605;49.742;18.802;2022-12-29T00:06:38;5.90;;;4.22;;
32491;SDS011;20605;49.742;18.802;2022-12-29T00:09:04;7.10;;;4.33;;
32491;SDS011;20605;49.742;18.802;2022-12-29T00:11:31;6.33;;;4.55;;
32491;SDS011;20605;49.742;18.802;2022-12-29T00:13:58;6.85;;;4.35;;
32491;SDS011;20605;49.742;18.802;2022-12-29T00:16:44;6.17;;;3.90;;
32491;SDS011;20605;49.742;18.802;2022-12-29T00:19:11;6.03;;;4.10;;
32491;SDS011;20605;49.742;18.802;2022-12-29T00:21:57;8.18;;;4.67;;
32491;SDS011;20605;49.742;18.802;2022-12-29T00:24:46;5.72;;;4.15;;
32491;SDS011;20605;49.742;18.802;2022-12-29T00:27:17;6.17;;;3.95;;
32491;SDS011;20605;49.742;18.802;2022-12-29T00:30:04;6.87;;;4.33;;
32491;SDS011;20605;49.742;18.802;2022-12-29T00:32:55;6.08;;;4.08;;
32491;SDS011;20605;49.742;18.802;2022-12-29T00:35:44;6.63;;;4.40;;
32491;SDS011;20605;49.742;18.802;2022-12-29T00:38:15;5.87;;;4.25;;
32491;SDS011;20605;49.742;18.802;2022-12-29T00:41:00;5.62;;;4.03;;
32491;SDS011;20605;49.742;18.802;2022-12-29T00:43:45;4.92;;;3.90;;
32491;SDS011;20605;49.742;18.802;2022-12-29T00:46:35;5.58;;;4.25;;
32491;SDS011;20605;49.742;18.802;2022-12-29T00:49:00;6.45;;;4.40;;
32491;SDS011;20605;49.742;18.802;2022-12-29T00:51:47;6.42;;;4.95;;
32491;SDS011;20605;49.742;18.802;2022-12-29T00:54:14;6.20;;;4.45;;
32491;SDS011;20605;49.742;18.802;2022-12-29T00:56:41;5.95;;;4.28;;
32491;SDS011;20605;49.742;18.802;2022-12-29T00:59:09;6.47;;;4.20;;
32491;SDS011;20605;49.742;18.802;2022-12-29T01:01:37;5.50;;;3.98;;
32491;SDS011;20605;49.742;18.802;2022-12-29T01:04:05;6.62;;;4.08;;
32491;SDS011;20605;49.742;18.802;2022-12-29T01:06:32;7.33;;;4.47;;
32491;SDS011;20605;49.742;18.802;2022-12-29T01:09:02;8.10;;;4.25;;
32491;SDS011;20605;49.742;18.802;2022-12-29T01:11:48;7.35;;;4.08;;
32491;SDS011;20605;49.742;18.802;2022-12-29T01:14:16;8.08;;;4.67;;
32491;SDS011;20605;49.742;18.802;2022-12-29T01:16:43;8.30;;;4.65;;
32491;SDS011;20605;49.742;18.802;2022-12-29T01:19:11;6.47;;;4.53;;
32491;SDS011;20605;49.742;18.802;2022-12-29T01:21:40;7.70;;;4.62;;
32491;SDS011;20605;49.742;18.802;2022-12-29T01:26:48;6.58;;;4.45;;
32491;SDS011;20605;49.742;18.802;2022-12-29T01:29:16;6.20;;;4.00;;
32491;SDS011;20605;49.742;18.802;2022-12-29T01:31:44;5.87;;;4.15;;
32491;SDS011;20605;49.742;18.802;2022-12-29T01:34:11;5.83;;;4.37;;
32491;SDS011;20605;49.742;18.802;2022-12-29T01:36:39;8.15;;;4.33;;
32491;SDS011;20605;49.742;18.802;2022-12-29T01:39:06;7.30;;;4.60;;
32491;SDS011;20605;49.742;18.802;2022-12-29T01:41:32;8.58;;;5.75;;
32491;SDS011;20605;49.742;18.802;2022-12-29T01:44:00;7.45;;;4.87;;
32491;SDS011;20605;49.742;18.802;2022-12-29T01:51:39;8.88;;;5.60;;
32491;SDS011;20605;49.742;18.802;2022-12-29T01:57:03;7.72;;;4.83;;
32491;SDS011;20605;49.742;18.802;2022-12-29T01:59:41;7.58;;;4.47;;
32491;SDS011;20605;49.742;18.802;2022-12-29T02:02:11;7.30;;;4.50;;
32491;SDS011;20605;49.742;18.802;2022-12-29T02:04:39;6.80;;;4.70;;
32491;SDS011;20605;49.742;18.802;2022-12-29T02:07:19;6.30;;;4.47;;
32491;SDS011;20605;49.742;18.802;2022-12-29T02:09:49;5.30;;;4.05;;
32491;SDS011;20605;49.742;18.802;2022-12-29T02:12:17;7.72;;;4.15;;
32491;SDS011;20605;49.742;18.802;2022-12-29T02:14:47;6.65;;;4.25;;
32491;SDS011;20605;49.742;18.802;2022-12-29T02:31:55;5.62;;;3.42;;
32491;SDS011;20605;49.742;18.802;2022-12-29T02:34:57;8.08;;;3.62;;
32491;SDS011;20605;49.742;18.802;2022-12-29T02:37:29;6.72;;;3.67;;
32491;SDS011;20605;49.742;18.802;2022-12-29T02:43:26;4.72;;;3.60;;
32491;SDS011;20605;49.742;18.802;2022-12-29T02:46:26;4.30;;;3.42;;
32491;SDS011;20605;49.742;18.802;2022-12-29T02:49:13;6.62;;;3.70;;
32491;SDS011;20605;49.742;18.802;2022-12-29T02:51:45;4.90;;;3.65;;
32491;SDS011;20605;49.742;18.802;2022-12-29T02:54:22;6.15;;;4.28;;
32491;SDS011;20605;49.742;18.802;2022-12-29T02:59:53;4.30;;;3.80;;
32491;SDS011;20605;49.742;18.802;2022-12-29T03:02:54;8.10;;;5.10;;
32491;SDS011;20605;49.742;18.802;2022-12-29T03:11:38;4.78;;;3.35;;
32491;SDS011;20605;49.742;18.802;2022-12-29T03:14:30;6.17;;;3.77;;
32491;SDS011;20605;49.742;18.802;2022-12-29T03:17:35;5.10;;;3.87;;
32491;SDS011;20605;49.742;18.802;2022-12-29T03:20:08;5.28;;;3.60;;
32491;SDS011;20605;49.742;18.802;2022-12-29T03:22:38;6.33;;;4.05;;
32491;SDS011;20605;49.742;18.802;2022-12-29T03:27:59;5.28;;;4.03;;
32491;SDS011;20605;49.742;18.802;2022-12-29T03:30:38;5.37;;;3.62;;
32491;SDS011;20605;49.742;18.802;2022-12-29T03:33:09;6.47;;;3.77;;
32491;SDS011;20605;49.742;18.802;2022-12-29T03:35:38;6.42;;;3.85;;
32491;SDS011;20605;49.742;18.802;2022-12-29T03:38:18;4.65;;;3.30;;
32491;SDS011;20605;49.742;18.802;2022-12-29T03:40:52;5.17;;;3.60;;
32491;SDS011;20605;49.742;18.802;2022-12-29T03:43:22;4.55;;;3.67;;
32491;SDS011;20605;49.742;18.802;2022-12-29T03:45:49;4.85;;;3.62;;
32491;SDS011;20605;49.742;18.802;2022-12-29T03:48:17;5.75;;;4.20;;
32491;SDS011;20605;49.742;18.802;2022-12-29T03:50:43;7.95;;;3.80;;
32491;SDS011;20605;49.742;18.802;2022-12-29T03:53:10;5.33;;;3.62;;
32491;SDS011;20605;49.742;18.802;2022-12-29T03:55:37;5.05;;;3.80;;
32491;SDS011;20605;49.742;18.802;2022-12-29T03:58:05;4.55;;;3.45;;
32491;SDS011;20605;49.742;18.802;2022-12-29T04:00:33;4.15;;;3.20;;
32491;SDS011;20605;49.742;18.802;2022-12-29T04:03:00;4.70;;;3.62;;
32491;SDS011;20605;49.742;18.802;2022-12-29T04:05:26;4.05;;;3.40;;
32491;SDS011;20605;49.742;18.802;2022-12-29T04:07:54;4.85;;;3.50;;
32491;SDS011;20605;49.742;18.802;2022-12-29T04:10:22;5.30;;;3.72;;
32491;SDS011;20605;49.742;18.802;2022-12-29T04:12:50;5.00;;;3.90;;
32491;SDS011;20605;49.742;18.802;2022-12-29T04:15:17;4.22;;;3.37;;
32491;SDS011;20605;49.742;18.802;2022-12-29T04:17:44;4.78;;;3.30;;
32491;SDS011;20605;49.742;18.802;2022-12-29T04:20:11;4.37;;;3.65;;
32491;SDS011;20605;49.742;18.802;2022-12-29T04:22:59;4.08;;;3.20;;
32491;SDS011;20605;49.742;18.802;2022-12-29T04:25:28;4.72;;;3.58;;
32491;SDS011;20605;49.742;18.802;2022-12-29T04:27:56;6.05;;;3.62;;
32491;SDS011;20605;49.742;18.802;2022-12-29T04:30:40;5.33;;;3.67;;
32491;SDS011;20605;49.742;18.802;2022-12-29T04:33:20;6.33;;;3.77;;
32491;SDS011;20605;49.742;18.802;2022-12-29T04:35:47;4.65;;;3.75;;
32491;SDS011;20605;49.742;18.802;2022-12-29T04:38:14;8.90;;;4.00;;
32491;SDS011;20605;49.742;18.802;2022-12-29T04:40:41;5.10;;;3.70;;
32491;SDS011;20605;49.742;18.802;2022-12-29T04:43:09;3.72;;;3.35;;
32491;SDS011;20605;49.742;18.802;2022-12-29T04:45:55;4.70;;;3.83;;
32491;SDS011;20605;49.742;18.802;2022-12-29T04:48:23;6.08;;;3.90;;
32491;SDS011;20605;49.742;18.802;2022-12-29T04:50:58;5.03;;;3.60;;
32491;SDS011;20605;49.742;18.802;2022-12-29T04:53:26;6.87;;;3.90;;
32491;SDS011;20605;49.742;18.802;2022-12-29T04:55:53;5.92;;;3.60;;
32491;SDS011;20605;49.742;18.802;2022-12-29T04:58:20;5.80;;;4.20;;
32491;SDS011;20605;49.742;18.802;2022-12-29T05:00:48;6.60;;;3.83;;
32491;SDS011;20605;49.742;18.802;2022-12-29T05:03:16;6.28;;;4.30;;
32491;SDS011;20605;49.742;18.802;2022-12-29T05:05:42;5.95;;;4.35;;
32491;SDS011;20605;49.742;18.802;2022-12-29T05:08:09;6.08;;;4.47;;
32491;SDS011;20605;49.742;18.802;2022-12-29T05:10:36;6.40;;;4.33;;
32491;SDS011;20605;49.742;18.802;2022-12-29T05:13:04;5.12;;;4.25;;
32491;SDS011;20605;49.742;18.802;2022-12-29T05:15:31;5.37;;;4.17;;
32491;SDS011;20605;49.742;18.802;2022-12-29T05:17:58;7.22;;;4.53;;
32491;SDS011;20605;49.742;18.802;2022-12-29T05:20:25;6.47;;;4.92;;
32491;SDS011;20605;49.742;18.802;2022-12-29T05:22:52;8.75;;;5.70;;
32491;SDS011;20605;49.742;18.802;2022-12-29T05:25:18;7.67;;;5.03;;
32491;SDS011;20605;49.742;18.802;2022-12-29T05:27:50;7.17;;;5.40;;
32491;SDS011;20605;49.742;18.802;2022-12-29T05:30:18;6.37;;;4.50;;
32491;SDS011;20605;49.742;18.802;2022-12-29T05:32:46;6.75;;;4.05;;
32491;SDS011;20605;49.742;18.802;2022-12-29T05:35:12;8.05;;;4.28;;
32491;SDS011;20605;49.742;18.802;2022-12-29T05:37:39;6.65;;;4.33;;
32491;SDS011;20605;49.742;18.802;2022-12-29T05:40:07;7.08;;;4.37;;
32491;SDS011;20605;49.742;18.802;2022-12-29T05:42:34;8.78;;;4.90;;
32491;SDS011;20605;49.742;18.802;2022-12-29T05:45:03;7.90;;;5.22;;
32491;SDS011;20605;49.742;18.802;2022-12-29T05:47:50;9.63;;;5.60;;
32491;SDS011;20605;49.742;18.802;2022-12-29T05:50:22;13.70;;;6.28;;
32491;SDS011;20605;49.742;18.802;2022-12-29T05:53:02;8.15;;;5.67;;
32491;SDS011;20605;49.742;18.802;2022-12-29T05:55:29;8.83;;;5.60;;
32491;SDS011;20605;49.742;18.802;2022-12-29T05:57:56;6.90;;;4.85;;
32491;SDS011;20605;49.742;18.802;2022-12-29T06:00:22;6.92;;;4.78;;
32491;SDS011;20605;49.742;18.802;2022-12-29T06:02:49;7.03;;;5.05;;
32491;SDS011;20605;49.742;18.802;2022-12-29T06:05:17;9.30;;;6.40;;
32491;SDS011;20605;49.742;18.802;2022-12-29T06:07:44;10.23;;;5.70;;
32491;SDS011;20605;49.742;18.802;2022-12-29T06:10:12;7.60;;;5.37;;
32491;SDS011;20605;49.742;18.802;2022-12-29T06:12:46;6.47;;;5.20;;
32491;SDS011;20605;49.742;18.802;2022-12-29T06:15:14;8.88;;;5.67;;
32491;SDS011;20605;49.742;18.802;2022-12-29T06:17:41;11.33;;;7.40;;
32491;SDS011;20605;49.742;18.802;2022-12-29T06:20:09;8.53;;;5.95;;
32491;SDS011;20605;49.742;18.802;2022-12-29T06:22:36;10.03;;;6.08;;
32491;SDS011;20605;49.742;18.802;2022-12-29T06:25:05;7.00;;;5.05;;
32491;SDS011;20605;49.742;18.802;2022-12-29T06:27:34;7.53;;;5.08;;
32491;SDS011;20605;49.742;18.802;2022-12-29T06:30:01;12.82;;;6.78;;
32491;SDS011;20605;49.742;18.802;2022-12-29T06:32:29;7.17;;;5.17;;
32491;SDS011;20605;49.742;18.802;2022-12-29T06:34:57;11.10;;;6.17;;
32491;SDS011;20605;49.742;18.802;2022-12-29T06:37:24;13.08;;;7.83;;
32491;SDS011;20605;49.742;18.802;2022-12-29T06:39:51;12.90;;;7.12;;
32491;SDS011;20605;49.742;18.802;2022-12-29T06:42:19;13.93;;;8.88;;
32491;SDS011;20605;49.742;18.802;2022-12-29T06:44:57;11.70;;;6.47;;
32491;SDS011;20605;49.742;18.802;2022-12-29T06:47:25;19.30;;;10.63;;
32491;SDS011;20605;49.742;18.802;2022-12-29T06:49:52;11.75;;;7.33;;
32491;SDS011;20605;49.742;18.802;2022-12-29T06:52:18;28.25;;;19.27;;
32491;SDS011;20605;49.742;18.802;2022-12-29T06:54:45;12.45;;;7.75;;
32491;SDS011;20605;49.742;18.802;2022-12-29T06:57:12;10.35;;;5.87;;
32491;SDS011;20605;49.742;18.802;2022-12-29T06:59:38;9.68;;;5.92;;
32491;SDS011;20605;49.742;18.802;2022-12-29T07:02:05;16.35;;;10.50;;
32491;SDS011;20605;49.742;18.802;2022-12-29T07:04:32;12.95;;;10.70;;
32491;SDS011;20605;49.742;18.802;2022-12-29T07:06:58;38.05;;;34.20;;
32491;SDS011;20605;49.742;18.802;2022-12-29T07:09:25;57.85;;;31.17;;
32491;SDS011;20605;49.742;18.802;2022-12-29T07:11:52;19.92;;;10.82;;
32491;SDS011;20605;49.742;18.802;2022-12-29T07:14:18;26.30;;;16.85;;
32491;SDS011;20605;49.742;18.802;2022-12-29T07:16:45;14.87;;;10.80;;
32491;SDS011;20605;49.742;18.802;2022-12-29T07:19:11;9.88;;;7.65;;
32491;SDS011;20605;49.742;18.802;2022-12-29T07:21:38;10.05;;;7.50;;
32491;SDS011;20605;49.742;18.802;2022-12-29T07:24:05;13.10;;;8.78;;
32491;SDS011;20605;49.742;18.802;2022-12-29T07:26:33;8.60;;;5.90;;
32491;SDS011;20605;49.742;18.802;2022-12-29T07:29:00;7.90;;;5.85;;
32491;SDS011;20605;49.742;18.802;2022-12-29T07:31:27;8.15;;;5.97;;
32491;SDS011;20605;49.742;18.802;2022-12-29T07:33:54;11.10;;;7.05;;
32491;SDS011;20605;49.742;18.802;2022-12-29T07:36:20;10.00;;;5.87;;
32491;SDS011;20605;49.742;18.802;2022-12-29T07:38:47;9.20;;;5.95;;
32491;SDS011;20605;49.742;18.802;2022-12-29T07:41:13;8.80;;;6.05;;
32491;SDS011;20605;49.742;18.802;2022-12-29T07:43:40;13.28;;;6.75;;
32491;SDS011;20605;49.742;18.802;2022-12-29T07:46:14;10.70;;;7.35;;
32491;SDS011;20605;49.742;18.802;2022-12-29T07:48:41;13.62;;;7.25;;
32491;SDS011;20605;49.742;18.802;2022-12-29T07:51:07;10.60;;;6.47;;
32491;SDS011;20605;49.742;18.802;2022-12-29T07:53:34;10.90;;;6.95;;
32491;SDS011;20605;49.742;18.802;2022-12-29T07:56:01;9.38;;;6.45;;
32491;SDS011;20605;49.742;18.802;2022-12-29T07:58:27;10.45;;;6.25;;
32491;SDS011;20605;49.742;18.802;2022-12-29T08:00:54;12.05;;;7.22;;
32491;SDS011;20605;49.742;18.802;2022-12-29T08:03:22;9.93;;;6.92;;
32491;SDS011;20605;49.742;18.802;2022-12-29T08:05:50;10.50;;;7.53;;
32491;SDS011;20605;49.742;18.802;2022-12-29T08:08:17;13.98;;;7.95;;
32491;SDS011;20605;49.742;18.802;2022-12-29T08:10:43;10.75;;;8.08;;
32491;SDS011;20605;49.742;18.802;2022-12-29T08:13:10;11.48;;;7.47;;
32491;SDS011;20605;49.742;18.802;2022-12-29T08:15:38;11.00;;;7.60;;
32491;SDS011;20605;49.742;18.802;2022-12-29T08:18:04;12.13;;;8.18;;
32491;SDS011;20605;49.742;18.802;2022-12-29T08:20:31;11.22;;;7.83;;
32491;SDS011;20605;49.742;18.802;2022-12-29T08:22:58;14.55;;;7.95;;
32491;SDS011;20605;49.742;18.802;2022-12-29T08:25:24;14.98;;;8.60;;
32491;SDS011;20605;49.742;18.802;2022-12-29T08:27:51;11.33;;;7.47;;
32491;SDS011;20605;49.742;18.802;2022-12-29T08:30:18;9.68;;;7.17;;
32491;SDS011;20605;49.742;18.802;2022-12-29T08:32:44;15.10;;;8.53;;
32491;SDS011;20605;49.742;18.802;2022-12-29T08:35:11;13.38;;;9.03;;
32491;SDS011;20605;49.742;18.802;2022-12-29T08:37:38;14.73;;;10.30;;
32491;SDS011;20605;49.742;18.802;2022-12-29T08:40:05;34.27;;;17.65;;
32491;SDS011;20605;49.742;18.802;2022-12-29T08:42:33;22.73;;;11.95;;
32491;SDS011;20605;49.742;18.802;2022-12-29T08:44:59;17.32;;;9.00;;
32491;SDS011;20605;49.742;18.802;2022-12-29T08:47:26;16.45;;;11.03;;
32491;SDS011;20605;49.742;18.802;2022-12-29T08:49:53;18.50;;;11.93;;
32491;SDS011;20605;49.742;18.802;2022-12-29T08:52:20;18.60;;;11.78;;
32491;SDS011;20605;49.742;18.802;2022-12-29T08:54:46;17.00;;;10.65;;
32491;SDS011;20605;49.742;18.802;2022-12-29T08:57:13;24.15;;;13.05;;
32491;SDS011;20605;49.742;18.802;2022-12-29T08:59:51;34.63;;;18.45;;
32491;SDS011;20605;49.742;18.802;2022-12-29T09:02:18;24.45;;;14.18;;
32491;SDS011;20605;49.742;18.802;2022-12-29T09:04:44;15.40;;;10.35;;
32491;SDS011;20605;49.742;18.802;2022-12-29T09:07:11;17.62;;;11.15;;
32491;SDS011;20605;49.742;18.802;2022-12-29T09:09:37;15.58;;;10.63;;
32491;SDS011;20605;49.742;18.802;2022-12-29T09:12:04;19.07;;;12.03;;
32491;SDS011;20605;49.742;18.802;2022-12-29T09:14:31;15.08;;;10.55;;
32491;SDS011;20605;49.742;18.802;2022-12-29T09:16:58;18.20;;;10.75;;
32491;SDS011;20605;49.742;18.802;2022-12-29T09:19:43;16.20;;;9.93;;
32491;SDS011;20605;49.742;18.802;2022-12-29T09:22:09;16.00;;;10.55;;
32491;SDS011;20605;49.742;18.802;2022-12-29T09:24:37;22.15;;;13.10;;
32491;SDS011;20605;49.742;18.802;2022-12-29T09:27:04;20.97;;;12.20;;
32491;SDS011;20605;49.742;18.802;2022-12-29T09:29:33;22.87;;;12.03;;
32491;SDS011;20605;49.742;18.802;2022-12-29T09:32:00;37.08;;;18.30;;
32491;SDS011;20605;49.742;18.802;2022-12-29T09:34:27;23.15;;;14.05;;
32491;SDS011;20605;49.742;18.802;2022-12-29T09:36:54;35.68;;;18.32;;
32491;SDS011;20605;49.742;18.802;2022-12-29T09:39:22;43.75;;;23.98;;
32491;SDS011;20605;49.742;18.802;2022-12-29T09:41:52;26.55;;;14.98;;
32491;SDS011;20605;49.742;18.802;2022-12-29T09:44:56;42.30;;;21.15;;
32491;SDS011;20605;49.742;18.802;2022-12-29T09:47:44;85.65;;;37.00;;
32491;SDS011;20605;49.742;18.802;2022-12-29T09:50:26;45.45;;;21.80;;
32491;SDS011;20605;49.742;18.802;2022-12-29T09:55:41;25.92;;;15.00;;
32491;SDS011;20605;49.742;18.802;2022-12-29T09:58:24;41.23;;;24.05;;
32491;SDS011;20605;49.742;18.802;2022-12-29T10:01:06;27.73;;;14.87;;
32491;SDS011;20605;49.742;18.802;2022-12-29T10:03:48;25.50;;;16.57;;
32491;SDS011;20605;49.742;18.802;2022-12-29T10:09:02;30.40;;;15.50;;
32491;SDS011;20605;49.742;18.802;2022-12-29T10:20:16;24.15;;;14.90;;
32491;SDS011;20605;49.742;18.802;2022-12-29T10:23:15;17.02;;;10.63;;
32491;SDS011;20605;49.742;18.802;2022-12-29T10:25:55;17.27;;;11.65;;
32491;SDS011;20605;49.742;18.802;2022-12-29T10:28:43;20.65;;;14.18;;
32491;SDS011;20605;49.742;18.802;2022-12-29T10:31:23;15.45;;;9.98;;
32491;SDS011;20605;49.742;18.802;2022-12-29T10:33:56;22.67;;;12.35;;
32491;SDS011;20605;49.742;18.802;2022-12-29T10:36:41;21.40;;;11.35;;
32491;SDS011;20605;49.742;18.802;2022-12-29T10:45:12;22.52;;;12.88;;
32491;SDS011;20605;49.742;18.802;2022-12-29T10:51:02;20.23;;;10.45;;
32491;SDS011;20605;49.742;18.802;2022-12-29T10:53:38;17.73;;;10.15;;
32491;SDS011;20605;49.742;18.802;2022-12-29T10:56:14;17.42;;;10.58;;
32491;SDS011;20605;49.742;18.802;2022-12-29T10:58:59;10.32;;;7.60;;
32491;SDS011;20605;49.742;18.802;2022-12-29T11:07:30;15.78;;;11.33;;
32491;SDS011;20605;49.742;18.802;2022-12-29T11:12:56;15.43;;;10.35;;
32491;SDS011;20605;49.742;18.802;2022-12-29T11:15:45;20.15;;;11.45;;
32491;SDS011;20605;49.742;18.802;2022-12-29T11:18:22;17.00;;;10.73;;
32491;SDS011;20605;49.742;18.802;2022-12-29T11:21:03;25.45;;;11.40;;
32491;SDS011;20605;49.742;18.802;2022-12-29T11:23:34;13.62;;;9.98;;
32491;SDS011;20605;49.742;18.802;2022-12-29T11:31:55;17.65;;;10.03;;
32491;SDS011;20605;49.742;18.802;2022-12-29T11:37:10;14.80;;;9.20;;
32491;SDS011;20605;49.742;18.802;2022-12-29T11:39:57;20.08;;;11.25;;
32491;SDS011;20605;49.742;18.802;2022-12-29T11:42:35;14.35;;;9.95;;
32491;SDS011;20605;49.742;18.802;2022-12-29T11:45:09;14.73;;;9.73;;
32491;SDS011;20605;49.742;18.802;2022-12-29T11:47:53;19.27;;;10.93;;
32491;SDS011;20605;49.742;18.802;2022-12-29T11:50:27;16.73;;;11.10;;
32491;SDS011;20605;49.742;18.802;2022-12-29T11:53:00;17.90;;;10.53;;
32491;SDS011;20605;49.742;18.802;2022-12-29T11:55:50;17.98;;;11.10;;
32491;SDS011;20605;49.742;18.802;2022-12-29T11:58:28;18.75;;;12.55;;
32491;SDS011;20605;49.742;18.802;2022-12-29T12:01:00;19.87;;;13.08;;
32491;SDS011;20605;49.742;18.802;2022-12-29T12:03:39;17.35;;;12.03;;
32491;SDS011;20605;49.742;18.802;2022-12-29T12:06:30;15.28;;;10.05;;
32491;SDS011;20605;49.742;18.802;2022-12-29T12:09:14;28.98;;;18.48;;
32491;SDS011;20605;49.742;18.802;2022-12-29T12:11:42;18.05;;;10.60;;
32491;SDS011;20605;49.742;18.802;2022-12-29T12:14:57;15.65;;;10.72;;
32491;SDS011;20605;49.742;18.802;2022-12-29T12:16:57;16.35;;;10.60;;
32491;SDS011;20605;49.742;18.802;2022-12-29T12:19:32;17.92;;;10.20;;
32491;SDS011;20605;49.742;18.802;2022-12-29T12:27:38;16.32;;;10.93;;
32491;SDS011;20605;49.742;18.802;2022-12-29T12:30:14;17.42;;;11.63;;
32491;SDS011;20605;49.742;18.802;2022-12-29T12:32:46;17.37;;;11.12;;
32491;SDS011;20605;49.742;18.802;2022-12-29T12:41:40;19.73;;;11.78;;
32491;SDS011;20605;49.742;18.802;2022-12-29T12:47:19;13.75;;;9.85;;
32491;SDS011;20605;49.742;18.802;2022-12-29T12:53:04;12.40;;;9.25;;
32491;SDS011;20605;49.742;18.802;2022-12-29T13:01:24;12.10;;;8.43;;
32491;SDS011;20605;49.742;18.802;2022-12-29T13:23:48;17.42;;;10.68;;
32491;SDS011;20605;49.742;18.802;2022-12-29T13:26:45;24.77;;;16.07;;
32491;SDS011;20605;49.742;18.802;2022-12-29T13:29:30;14.58;;;9.90;;
32491;SDS011;20605;49.742;18.802;2022-12-29T13:34:59;16.05;;;8.85;;
32491;SDS011;20605;49.742;18.802;2022-12-29T13:38:10;17.12;;;10.03;;
32491;SDS011;20605;49.742;18.802;2022-12-29T13:40:41;14.13;;;9.83;;
32491;SDS011;20605;49.742;18.802;2022-12-29T13:43:13;20.60;;;11.73;;
32491;SDS011;20605;49.742;18.802;2022-12-29T13:45:42;19.12;;;11.10;;
32491;SDS011;20605;49.742;18.802;2022-12-29T13:48:17;19.42;;;13.30;;
32491;SDS011;20605;49.742;18.802;2022-12-29T13:50:52;26.02;;;15.13;;
32491;SDS011;20605;49.742;18.802;2022-12-29T13:53:42;17.15;;;12.82;;
32491;SDS011;20605;49.742;18.802;2022-12-29T13:56:15;19.20;;;11.70;;
32491;SDS011;20605;49.742;18.802;2022-12-29T13:59:06;18.73;;;11.93;;
32491;SDS011;20605;49.742;18.802;2022-12-29T14:08:10;23.90;;;15.60;;
32491;SDS011;20605;49.742;18.802;2022-12-29T14:10:38;27.98;;;18.15;;
32491;SDS011;20605;49.742;18.802;2022-12-29T14:13:15;31.85;;;20.70;;
32491;SDS011;20605;49.742;18.802;2022-12-29T14:15:50;39.83;;;18.25;;
32491;SDS011;20605;49.742;18.802;2022-12-29T14:18:23;37.98;;;17.37;;
32491;SDS011;20605;49.742;18.802;2022-12-29T14:20:54;24.37;;;14.30;;
32491;SDS011;20605;49.742;18.802;2022-12-29T14:23:44;21.87;;;12.33;;
32491;SDS011;20605;49.742;18.802;2022-12-29T14:29:46;22.95;;;16.52;;
32491;SDS011;20605;49.742;18.802;2022-12-29T14:31:44;55.58;;;33.00;;
32491;SDS011;20605;49.742;18.802;2022-12-29T14:36:43;30.68;;;22.70;;
32491;SDS011;20605;49.742;18.802;2022-12-29T14:52:56;41.90;;;34.95;;
32491;SDS011;20605;49.742;18.802;2022-12-29T14:55:43;22.42;;;15.40;;
32491;SDS011;20605;49.742;18.802;2022-12-29T14:58:17;25.85;;;14.93;;
32491;SDS011;20605;49.742;18.802;2022-12-29T15:00:53;21.75;;;12.78;;
32491;SDS011;20605;49.742;18.802;2022-12-29T15:03:23;21.93;;;17.42;;
32491;SDS011;20605;49.742;18.802;2022-12-29T15:05:56;18.65;;;12.05;;
32491;SDS011;20605;49.742;18.802;2022-12-29T15:08:42;14.38;;;9.50;;
32491;SDS011;20605;49.742;18.802;2022-12-29T15:11:17;15.60;;;9.85;;
32491;SDS011;20605;49.742;18.802;2022-12-29T15:13:47;16.17;;;10.53;;
32491;SDS011;20605;49.742;18.802;2022-12-29T15:16:25;16.05;;;10.58;;
32491;SDS011;20605;49.742;18.802;2022-12-29T15:18:58;14.20;;;9.55;;
32491;SDS011;20605;49.742;18.802;2022-12-29T15:21:27;16.27;;;9.98;;
32491;SDS011;20605;49.742;18.802;2022-12-29T15:23:59;16.23;;;11.65;;
32491;SDS011;20605;49.742;18.802;2022-12-29T15:26:39;15.10;;;10.13;;
32491;SDS011;20605;49.742;18.802;2022-12-29T15:32:15;21.40;;;14.05;;
32491;SDS011;20605;49.742;18.802;2022-12-29T15:34:45;19.40;;;12.13;;
32491;SDS011;20605;49.742;18.802;2022-12-29T15:37:17;40.60;;;27.58;;
32491;SDS011;20605;49.742;18.802;2022-12-29T15:39:50;20.70;;;14.33;;
32491;SDS011;20605;49.742;18.802;2022-12-29T15:42:23;30.15;;;18.85;;
32491;SDS011;20605;49.742;18.802;2022-12-29T15:44:51;62.35;;;46.05;;
32491;SDS011;20605;49.742;18.802;2022-12-29T15:47:19;31.57;;;23.75;;
32491;SDS011;20605;49.742;18.802;2022-12-29T15:49:49;27.77;;;16.90;;
32491;SDS011;20605;49.742;18.802;2022-12-29T15:52:20;66.50;;;40.65;;
32491;SDS011;20605;49.742;18.802;2022-12-29T15:54:48;93.95;;;62.53;;
32491;SDS011;20605;49.742;18.802;2022-12-29T15:57:25;80.67;;;34.88;;
32491;SDS011;20605;49.742;18.802;2022-12-29T15:59:55;58.85;;;29.98;;
32491;SDS011;20605;49.742;18.802;2022-12-29T16:02:22;33.08;;;20.70;;
32491;SDS011;20605;49.742;18.802;2022-12-29T16:04:50;47.08;;;23.87;;
32491;SDS011;20605;49.742;18.802;2022-12-29T16:07:36;51.48;;;25.70;;
32491;SDS011;20605;49.742;18.802;2022-12-29T16:09:59;34.80;;;18.75;;
32491;SDS011;20605;49.742;18.802;2022-12-29T16:12:32;34.83;;;16.48;;
32491;SDS011;20605;49.742;18.802;2022-12-29T16:15:06;28.90;;;16.95;;
32491;SDS011;20605;49.742;18.802;2022-12-29T16:17:34;27.37;;;16.27;;
32491;SDS011;20605;49.742;18.802;2022-12-29T16:20:14;37.17;;;18.80;;
32491;SDS011;20605;49.742;18.802;2022-12-29T16:22:49;21.10;;;12.45;;
32491;SDS011;20605;49.742;18.802;2022-12-29T16:25:30;24.95;;;14.43;;
32491;SDS011;20605;49.742;18.802;2022-12-29T16:28:00;24.10;;;14.55;;
32491;SDS011;20605;49.742;18.802;2022-12-29T16:30:29;24.67;;;14.45;;
32491;SDS011;20605;49.742;18.802;2022-12-29T16:33:01;14.60;;;10.43;;
32491;SDS011;20605;49.742;18.802;2022-12-29T16:38:13;25.00;;;14.98;;
32491;SDS011;20605;49.742;18.802;2022-12-29T16:40:53;16.23;;;10.28;;
32491;SDS011;20605;49.742;18.802;2022-12-29T16:43:29;18.17;;;12.10;;
32491;SDS011;20605;49.742;18.802;2022-12-29T16:48:53;15.00;;;10.03;;
32491;SDS011;20605;49.742;18.802;2022-12-29T16:51:28;17.35;;;12.88;;
32491;SDS011;20605;49.742;18.802;2022-12-29T16:54:00;19.65;;;12.93;;
32491;SDS011;20605;49.742;18.802;2022-12-29T16:56:30;31.37;;;17.82;;
32491;SDS011;20605;49.742;18.802;2022-12-29T17:01:35;75.53;;;35.93;;
32491;SDS011;20605;49.742;18.802;2022-12-29T17:04:07;97.65;;;42.62;;
32491;SDS011;20605;49.742;18.802;2022-12-29T17:06:37;67.12;;;29.87;;
32491;SDS011;20605;49.742;18.802;2022-12-29T17:09:18;88.27;;;38.98;;
32491;SDS011;20605;49.742;18.802;2022-12-29T17:11:55;53.95;;;25.72;;
32491;SDS011;20605;49.742;18.802;2022-12-29T17:18:00;140.05;;;51.02;;
32491;SDS011;20605;49.742;18.802;2022-12-29T17:20:05;101.38;;;38.65;;
32491;SDS011;20605;49.742;18.802;2022-12-29T17:22:44;143.70;;;53.23;;
32491;SDS011;20605;49.742;18.802;2022-12-29T17:25:17;143.57;;;51.48;;
32491;SDS011;20605;49.742;18.802;2022-12-29T17:27:44;179.65;;;62.83;;
32491;SDS011;20605;49.742;18.802;2022-12-29T17:30:19;172.72;;;55.05;;
32491;SDS011;20605;49.742;18.802;2022-12-29T17:32:51;79.65;;;32.93;;
32491;SDS011;20605;49.742;18.802;2022-12-29T17:35:21;70.75;;;29.20;;
32491;SDS011;20605;49.742;18.802;2022-12-29T17:37:48;47.23;;;23.22;;
32491;SDS011;20605;49.742;18.802;2022-12-29T17:40:17;19.90;;;13.15;;